createdAt,value
2023-02-28T00:01:32.442Z,24.65
2023-02-28T00:04:00.665Z,24.38
2023-02-28T00:06:29.365Z,24.83
2023-02-28T00:08:57.523Z,25.90
2023-02-28T00:11:41.683Z,23.83
2023-02-28T00:14:09.806Z,25.67
2023-02-28T00:16:39.971Z,22.08
2023-02-28T00:19:08.335Z,23.50
2023-02-28T00:21:37.336Z,21.42
2023-02-28T00:24:05.640Z,21.40
2023-02-28T00:26:34.564Z,22.05
2023-02-28T00:29:05.465Z,20.25
2023-02-28T00:31:33.557Z,21.92
2023-02-28T00:34:01.598Z,21.70
2023-02-28T00:36:46.364Z,21.73
2023-02-28T00:39:14.991Z,20.17
2023-02-28T00:41:50.468Z,19.75
2023-02-28T00:44:22.691Z,19.70
2023-02-28T00:46:50.906Z,18.08
2023-02-28T00:49:19.345Z,18.95
2023-02-28T00:51:48.198Z,17.85
2023-02-28T00:54:16.906Z,19.13
2023-02-28T00:56:45.129Z,18.42
2023-02-28T00:59:14.474Z,19.88
2023-02-28T01:01:49.781Z,16.27
2023-02-28T01:04:22.305Z,17.63
2023-02-28T01:06:50.685Z,18.20
2023-02-28T01:09:21.655Z,17.35
2023-02-28T01:11:50.202Z,14.23
2023-02-28T01:14:18.524Z,12.32
2023-02-28T01:16:47.702Z,18.25
2023-02-28T01:19:16.557Z,18.48
2023-02-28T01:21:45.239Z,18.73
2023-02-28T01:24:15.113Z,17.38
2023-02-28T01:26:43.476Z,17.15
2023-02-28T01:29:12.442Z,17.08
2023-02-28T01:31:40.950Z,17.48
2023-02-28T01:34:32.062Z,17.05
2023-02-28T01:37:02.293Z,15.98
2023-02-28T01:39:31.624Z,16.83
2023-02-28T01:42:01.298Z,15.32
2023-02-28T01:45:00.426Z,15.20
2023-02-28T01:47:41.293Z,17.55
2023-02-28T01:50:15.140Z,15.98
2023-02-28T01:52:43.157Z,17.90
2023-02-28T01:55:15.365Z,15.25
2023-02-28T01:57:58.076Z,15.48
2023-02-28T02:00:28.409Z,15.07
2023-02-28T02:03:00.123Z,16.08
2023-02-28T02:05:32.250Z,15.52
2023-02-28T02:08:08.104Z,17.83
2023-02-28T02:10:50.401Z,15.77
2023-02-28T02:13:44.143Z,17.25
2023-02-28T02:17:00.437Z,15.60
2023-02-28T02:19:33.781Z,15.98
2023-02-28T02:22:23.264Z,15.82
2023-02-28T02:25:20.728Z,15.35
2023-02-28T02:28:28.330Z,14.60
2023-02-28T02:31:19.844Z,16.10
2023-02-28T02:33:59.577Z,16.45
2023-02-28T02:36:53.309Z,16.60
2023-02-28T02:39:24.564Z,16.08
2023-02-28T02:41:57.017Z,16.73
2023-02-28T02:44:45.654Z,15.48
2023-02-28T02:47:19.035Z,15.77
2023-02-28T02:49:52.367Z,16.10
2023-02-28T02:52:23.532Z,15.88
2023-02-28T02:54:56.195Z,16.55
2023-02-28T02:57:28.123Z,16.15
2023-02-28T02:59:56.637Z,16.05
2023-02-28T03:02:24.823Z,16.83
2023-02-28T03:05:01.798Z,16.58
2023-02-28T03:07:32.920Z,16.98
2023-02-28T03:10:04.795Z,16.92
2023-02-28T03:12:42.696Z,16.55
2023-02-28T03:15:28.646Z,16.73
2023-02-28T03:18:08.248Z,16.65
2023-02-28T03:20:58.310Z,15.55
2023-02-28T03:23:41.152Z,14.73
2023-02-28T03:26:22.731Z,15.80
2023-02-28T03:29:14.090Z,15.63
2023-02-28T03:31:45.417Z,15.35
2023-02-28T03:34:22.778Z,15.52
2023-02-28T03:36:54.858Z,14.07
2023-02-28T03:39:57.048Z,13.55
2023-02-28T03:42:32.357Z,15.18
2023-02-28T03:45:18.333Z,14.55
2023-02-28T03:47:55.124Z,14.00
2023-02-28T03:50:25.429Z,14.93
2023-02-28T03:53:02.351Z,14.13
2023-02-28T03:55:40.749Z,14.95
2023-02-28T03:58:36.835Z,15.35
2023-02-28T04:01:26.448Z,14.80
2023-02-28T04:03:55.343Z,14.65
2023-02-28T04:06:25.547Z,14.07
2023-02-28T04:08:55.409Z,12.98
2023-02-28T04:11:42.882Z,13.02
2023-02-28T04:14:12.063Z,14.30
2023-02-28T04:16:41.892Z,13.23
2023-02-28T04:19:11.938Z,12.35
2023-02-28T04:21:51.735Z,13.60
2023-02-28T04:24:27.540Z,13.45
2023-02-28T04:26:56.696Z,12.65
2023-02-28T04:29:30.303Z,12.20
2023-02-28T04:32:00.472Z,13.43
2023-02-28T04:34:29.831Z,13.25
2023-02-28T04:37:14.499Z,13.20
2023-02-28T04:42:14.967Z,12.73
2023-02-28T04:44:43.102Z,12.73
2023-02-28T04:47:12.092Z,12.85
2023-02-28T04:49:42.674Z,12.77
2023-02-28T04:52:14.495Z,12.63
2023-02-28T04:54:43.560Z,12.52
2023-02-28T04:57:12.073Z,13.10
2023-02-28T04:59:41.508Z,12.60
2023-02-28T05:02:11.507Z,13.15
2023-02-28T05:04:40.994Z,13.80
2023-02-28T05:07:09.045Z,12.75
2023-02-28T05:09:37.631Z,13.95
2023-02-28T05:12:07.827Z,12.65
2023-02-28T05:14:39.409Z,13.00
2023-02-28T05:17:07.993Z,12.23
2023-02-28T05:19:37.137Z,13.35
2023-02-28T05:22:05.188Z,13.00
2023-02-28T05:24:35.002Z,12.65
2023-02-28T05:27:04.669Z,11.70
2023-02-28T05:29:35.267Z,11.68
2023-02-28T05:32:06.346Z,11.80
2023-02-28T05:34:34.724Z,11.73
2023-02-28T05:37:06.922Z,11.05
2023-02-28T05:39:35.493Z,12.00
2023-02-28T05:42:04.172Z,10.52
2023-02-28T05:44:32.625Z,11.60
2023-02-28T05:47:00.890Z,11.82
2023-02-28T05:49:29.358Z,10.23
2023-02-28T05:51:58.154Z,10.95
2023-02-28T05:54:26.330Z,10.00
2023-02-28T05:56:54.742Z,11.48
2023-02-28T05:59:23.846Z,10.10
2023-02-28T06:01:54.392Z,11.40
2023-02-28T06:04:31.582Z,10.63
2023-02-28T06:07:00.874Z,12.02
2023-02-28T06:09:32.675Z,11.18
2023-02-28T06:12:05.048Z,10.98
2023-02-28T06:14:37.191Z,10.75
2023-02-28T06:17:10.718Z,9.32
2023-02-28T06:19:39.989Z,11.00
2023-02-28T06:22:08.693Z,10.50
2023-02-28T06:24:37.272Z,10.35
2023-02-28T06:27:09.871Z,10.73
2023-02-28T06:29:40.936Z,9.65
2023-02-28T06:32:08.880Z,8.85
2023-02-28T06:34:38.141Z,11.20
2023-02-28T06:37:07.176Z,10.30
2023-02-28T06:39:41.022Z,9.48
2023-02-28T06:42:09.772Z,10.38
2023-02-28T06:44:39.196Z,10.45
2023-02-28T06:47:08.060Z,11.07
2023-02-28T06:49:40.228Z,11.07
2023-02-28T06:52:11.050Z,9.90
2023-02-28T06:54:39.306Z,9.93
2023-02-28T06:57:10.839Z,8.57
2023-02-28T06:59:39.394Z,10.65
2023-02-28T07:02:08.943Z,10.55
2023-02-28T07:04:38.084Z,9.48
2023-02-28T07:07:07.349Z,10.18
2023-02-28T07:09:35.724Z,10.05
2023-02-28T07:12:04.812Z,10.77
2023-02-28T07:14:33.652Z,9.48
2023-02-28T07:17:01.879Z,11.52
2023-02-28T07:19:31.451Z,11.05
2023-02-28T07:22:00.466Z,10.23
2023-02-28T07:24:30.485Z,10.88
2023-02-28T07:27:01.006Z,9.85
2023-02-28T07:29:29.193Z,9.63
2023-02-28T07:32:01.676Z,9.75
2023-02-28T07:34:31.795Z,10.88
2023-02-28T07:37:04.650Z,9.63
2023-02-28T07:39:33.023Z,9.52
2023-02-28T07:42:08.092Z,10.00
2023-02-28T07:44:36.777Z,10.80
2023-02-28T07:47:05.734Z,11.43
2023-02-28T07:49:33.853Z,11.13
2023-02-28T07:52:01.868Z,10.23
2023-02-28T07:54:31.285Z,9.13
2023-02-28T07:56:59.548Z,10.18
2023-02-28T07:59:32.429Z,9.95
2023-02-28T08:02:00.714Z,9.23
2023-02-28T08:04:29.504Z,10.07
2023-02-28T08:07:18.371Z,9.73
2023-02-28T08:09:46.462Z,9.23
2023-02-28T08:12:14.745Z,10.23
2023-02-28T08:14:43.041Z,9.32
2023-02-28T08:17:11.835Z,9.65
2023-02-28T08:19:42.910Z,7.88
2023-02-28T08:22:12.768Z,10.02
2023-02-28T08:24:43.815Z,9.38
2023-02-28T08:27:47.300Z,9.70
2023-02-28T08:30:26.387Z,9.93
2023-02-28T08:32:58.791Z,9.95
2023-02-28T08:35:30.685Z,10.00
2023-02-28T08:38:00.353Z,8.45
2023-02-28T08:40:28.629Z,8.25
2023-02-28T08:42:57.386Z,10.18
2023-02-28T08:45:26.869Z,9.20
2023-02-28T08:47:56.919Z,9.90
2023-02-28T08:50:32.016Z,9.65
2023-02-28T08:53:01.539Z,10.90
2023-02-28T08:55:29.698Z,9.75
2023-02-28T08:57:59.739Z,10.43
2023-02-28T09:00:29.181Z,8.00
2023-02-28T09:03:01.368Z,9.88
2023-02-28T09:05:31.875Z,10.00
2023-02-28T09:08:00.988Z,10.50
2023-02-28T09:10:32.002Z,11.75
2023-02-28T09:13:01.846Z,10.23
2023-02-28T09:15:31.321Z,10.52
2023-02-28T09:17:59.176Z,11.43
2023-02-28T09:20:28.017Z,10.23
2023-02-28T09:22:56.527Z,10.07
2023-02-28T09:25:24.913Z,10.63
2023-02-28T09:27:53.558Z,10.98
2023-02-28T09:30:22.039Z,10.50
2023-02-28T09:32:54.859Z,11.65
2023-02-28T09:35:27.813Z,10.82
2023-02-28T09:37:56.183Z,11.65
2023-02-28T09:40:33.208Z,10.93
2023-02-28T09:43:13.379Z,11.02
2023-02-28T09:45:43.939Z,12.15
2023-02-28T09:48:26.788Z,10.80
2023-02-28T09:51:08.566Z,10.23
2023-02-28T09:53:45.627Z,10.93
2023-02-28T09:56:26.998Z,11.07
2023-02-28T09:59:08.020Z,9.88
2023-02-28T10:01:41.045Z,11.10
2023-02-28T10:04:36.589Z,10.45
2023-02-28T10:07:18.776Z,11.52
2023-02-28T10:09:48.363Z,9.93
2023-02-28T10:12:16.304Z,11.68
2023-02-28T10:14:48.277Z,10.38
2023-02-28T10:17:21.965Z,11.35
2023-02-28T10:20:14.543Z,10.13
2023-02-28T10:23:08.792Z,10.15
2023-02-28T10:25:39.378Z,10.77
2023-02-28T10:28:14.215Z,10.60
2023-02-28T10:30:49.238Z,11.20
2023-02-28T10:33:30.594Z,11.10
2023-02-28T10:35:59.737Z,11.40
2023-02-28T10:38:42.754Z,11.82
2023-02-28T10:41:17.539Z,10.00
2023-02-28T10:43:48.811Z,11.13
2023-02-28T10:46:29.791Z,12.68
2023-02-28T10:49:06.711Z,10.77
2023-02-28T10:51:40.123Z,11.40
2023-02-28T10:54:32.032Z,11.45
2023-02-28T10:57:18.899Z,11.48
2023-02-28T11:00:06.811Z,11.25
2023-02-28T11:02:37.839Z,11.80
2023-02-28T11:05:29.641Z,11.98
2023-02-28T11:08:04.778Z,11.88
2023-02-28T11:10:36.051Z,11.82
2023-02-28T11:13:05.141Z,11.32
2023-02-28T11:15:36.116Z,9.68
2023-02-28T11:18:40.498Z,10.82
2023-02-28T11:21:18.289Z,10.52
2023-02-28T11:23:46.662Z,11.02
2023-02-28T11:26:15.455Z,10.68
2023-02-28T11:29:13.998Z,12.18
2023-02-28T11:31:45.514Z,12.35
2023-02-28T11:34:26.895Z,11.57
2023-02-28T11:36:58.725Z,11.07
2023-02-28T11:39:28.122Z,12.63
2023-02-28T11:42:15.677Z,11.07
2023-02-28T11:45:04.811Z,12.48
2023-02-28T11:47:38.986Z,11.15
2023-02-28T11:50:18.155Z,10.25
2023-02-28T11:52:55.432Z,10.90
2023-02-28T11:55:46.246Z,10.85
2023-02-28T11:58:29.424Z,10.95
2023-02-28T12:01:15.955Z,10.70
2023-02-28T12:04:19.119Z,9.02
2023-02-28T12:07:15.100Z,7.05
2023-02-28T12:10:09.637Z,9.57
2023-02-28T12:12:49.961Z,9.50
2023-02-28T12:15:27.126Z,10.20
2023-02-28T12:18:30.374Z,9.27
2023-02-28T12:21:06.950Z,10.70
2023-02-28T12:24:09.674Z,11.25
2023-02-28T12:26:46.468Z,9.90
2023-02-28T12:29:25.403Z,10.20
2023-02-28T12:32:41.684Z,9.82
2023-02-28T12:35:18.062Z,9.35
2023-02-28T12:38:17.335Z,10.10
2023-02-28T12:41:34.888Z,10.75
2023-02-28T12:44:29.467Z,9.57
2023-02-28T12:47:02.890Z,7.60
2023-02-28T12:49:47.424Z,8.48
2023-02-28T12:52:20.494Z,7.88
2023-02-28T12:54:56.534Z,9.33
2023-02-28T12:57:35.763Z,7.60
2023-02-28T13:00:17.453Z,7.93
2023-02-28T13:03:03.025Z,8.43
2023-02-28T13:06:17.072Z,8.25
2023-02-28T13:09:03.198Z,7.88
2023-02-28T13:11:43.076Z,7.25
2023-02-28T13:14:52.039Z,6.22
2023-02-28T13:17:22.405Z,6.53
2023-02-28T13:19:53.714Z,5.47
2023-02-28T13:22:45.854Z,7.28
2023-02-28T13:25:36.994Z,6.07
2023-02-28T13:28:10.984Z,6.78
2023-02-28T13:31:06.055Z,4.43
2023-02-28T13:33:37.573Z,6.20
2023-02-28T13:36:32.973Z,5.90
2023-02-28T13:39:03.313Z,6.32
2023-02-28T13:41:37.213Z,6.82
2023-02-28T13:44:08.946Z,6.63
2023-02-28T13:46:48.222Z,7.72
2023-02-28T13:49:38.287Z,7.03
2023-02-28T13:52:19.479Z,6.90
2023-02-28T13:55:06.159Z,5.85
2023-02-28T13:58:01.125Z,6.63
2023-02-28T14:00:44.089Z,6.65
2023-02-28T14:03:23.834Z,7.00
2023-02-28T14:06:29.380Z,5.97
2023-02-28T14:09:05.767Z,6.60
2023-02-28T14:11:40.599Z,7.20
2023-02-28T14:14:11.308Z,7.25
2023-02-28T14:16:46.612Z,6.63
2023-02-28T14:19:30.651Z,6.47
2023-02-28T14:22:20.780Z,6.65
2023-02-28T14:25:04.557Z,7.13
2023-02-28T14:27:41.633Z,6.15
2023-02-28T14:30:39.458Z,6.47
2023-02-28T14:33:35.605Z,7.15
2023-02-28T14:36:29.111Z,5.18
2023-02-28T14:38:59.884Z,7.53
2023-02-28T14:41:40.074Z,6.40
2023-02-28T14:44:22.294Z,6.55
2023-02-28T14:46:56.627Z,7.55
2023-02-28T14:49:41.514Z,7.03
2023-02-28T14:52:25.700Z,7.88
2023-02-28T14:54:56.330Z,8.85
2023-02-28T14:57:30.329Z,8.05
2023-02-28T15:00:14.244Z,9.10
2023-02-28T15:02:44.218Z,8.77
2023-02-28T15:05:14.616Z,10.50
2023-02-28T15:07:44.759Z,10.15
2023-02-28T15:10:26.603Z,9.55
2023-02-28T15:13:03.297Z,9.85
2023-02-28T15:16:01.929Z,9.40
2023-02-28T15:18:56.441Z,10.43
2023-02-28T15:21:26.753Z,9.98
2023-02-28T15:24:01.962Z,10.10
2023-02-28T15:26:38.389Z,9.63
2023-02-28T15:29:21.173Z,10.90
2023-02-28T15:32:34.254Z,10.82
2023-02-28T15:35:32.172Z,9.23
2023-02-28T15:38:07.590Z,11.20
2023-02-28T15:40:55.191Z,10.32
2023-02-28T15:43:49.712Z,9.93
2023-02-28T15:46:18.308Z,7.60
2023-02-28T15:48:56.348Z,8.40
2023-02-28T15:51:47.373Z,10.20
2023-02-28T15:54:21.740Z,10.07
2023-02-28T15:56:53.260Z,9.05
2023-02-28T15:59:24.157Z,8.73
2023-02-28T16:02:11.332Z,9.32
2023-02-28T16:05:11.334Z,7.68
2023-02-28T16:07:40.592Z,9.25
2023-02-28T16:10:12.617Z,8.50
2023-02-28T16:12:41.411Z,9.38
2023-02-28T16:15:18.185Z,8.82
2023-02-28T16:17:47.946Z,8.85
2023-02-28T16:20:21.615Z,8.25
2023-02-28T16:22:51.359Z,6.60
2023-02-28T16:25:21.067Z,8.57
2023-02-28T16:27:51.749Z,7.93
2023-02-28T16:30:26.025Z,8.73
2023-02-28T16:32:57.071Z,8.15
2023-02-28T16:35:25.450Z,9.45
2023-02-28T16:37:54.478Z,9.93
2023-02-28T16:40:26.656Z,9.30
2023-02-28T16:42:56.342Z,9.25
2023-02-28T16:45:27.089Z,10.90
2023-02-28T16:47:56.475Z,9.80
2023-02-28T16:50:29.885Z,9.80
2023-02-28T16:52:58.268Z,10.02
2023-02-28T16:55:27.535Z,9.48
2023-02-28T16:57:57.218Z,9.18
2023-02-28T17:00:28.452Z,8.13
2023-02-28T17:03:00.564Z,8.65
2023-02-28T17:05:29.603Z,6.43
2023-02-28T17:07:58.862Z,10.07
2023-02-28T17:10:31.809Z,9.82
2023-02-28T17:13:25.973Z,9.27
2023-02-28T17:15:57.697Z,7.80
2023-02-28T17:18:28.007Z,9.23
2023-02-28T17:20:56.205Z,8.98
2023-02-28T17:23:26.159Z,9.07
2023-02-28T17:25:57.553Z,9.45
2023-02-28T17:28:26.238Z,9.35
2023-02-28T17:31:01.751Z,10.02
2023-02-28T17:33:31.005Z,11.70
2023-02-28T17:35:59.514Z,10.55
2023-02-28T17:38:29.219Z,10.10
2023-02-28T17:41:00.298Z,10.25
2023-02-28T17:43:29.669Z,9.88
2023-02-28T17:45:59.454Z,10.85
2023-02-28T17:48:29.004Z,9.27
2023-02-28T17:50:57.886Z,10.43
2023-02-28T17:53:28.256Z,10.13
2023-02-28T17:55:56.284Z,9.68
2023-02-28T17:58:24.770Z,9.90
2023-02-28T18:00:55.548Z,8.32
2023-02-28T18:03:25.410Z,10.18
2023-02-28T18:05:54.913Z,9.07
2023-02-28T18:08:24.675Z,10.15
2023-02-28T18:11:00.378Z,10.43
2023-02-28T18:13:29.424Z,10.73
2023-02-28T18:15:57.654Z,11.23
2023-02-28T18:18:26.615Z,10.85
2023-02-28T18:20:55.703Z,11.55
2023-02-28T18:23:27.076Z,11.20
2023-02-28T18:26:02.815Z,10.13
2023-02-28T18:28:31.135Z,11.43
2023-02-28T18:31:07.934Z,11.10
2023-02-28T18:33:36.312Z,12.95
2023-02-28T18:36:06.753Z,12.30
2023-02-28T18:38:36.483Z,12.07
2023-02-28T18:41:07.336Z,12.70
2023-02-28T18:43:40.162Z,11.32
2023-02-28T18:46:16.709Z,12.60
2023-02-28T18:48:46.501Z,12.40
2023-02-28T18:51:18.717Z,12.80
2023-02-28T18:53:50.195Z,12.38
2023-02-28T18:56:23.568Z,12.95
2023-02-28T18:58:56.125Z,12.13
2023-02-28T19:01:48.973Z,11.48
2023-02-28T19:04:18.473Z,12.85
2023-02-28T19:06:47.950Z,13.93
2023-02-28T19:09:16.123Z,13.48
2023-02-28T19:11:44.219Z,14.57
2023-02-28T19:14:13.142Z,13.90
2023-02-28T19:16:43.596Z,13.18
2023-02-28T19:19:11.789Z,14.48
2023-02-28T19:21:41.514Z,14.68
2023-02-28T19:24:09.807Z,13.75
2023-02-28T19:26:42.500Z,14.00
2023-02-28T19:29:11.757Z,14.45
2023-02-28T19:31:39.838Z,13.25
2023-02-28T19:34:10.299Z,15.07
2023-02-28T19:36:39.466Z,14.15
2023-02-28T19:39:08.926Z,14.18
2023-02-28T19:41:37.421Z,14.57
2023-02-28T19:44:09.136Z,14.45
2023-02-28T19:46:44.712Z,14.15
2023-02-28T19:49:13.628Z,14.27
2023-02-28T19:51:43.912Z,14.85
2023-02-28T19:54:14.398Z,14.50
2023-02-28T19:56:44.270Z,15.57
2023-02-28T19:59:21.204Z,15.23
2023-02-28T20:01:50.098Z,13.98
2023-02-28T20:04:19.904Z,14.23
2023-02-28T20:06:49.230Z,15.75
2023-02-28T20:09:18.235Z,14.43
2023-02-28T20:11:51.125Z,14.25
2023-02-28T20:14:19.514Z,14.43
2023-02-28T20:16:56.482Z,15.48
2023-02-28T20:19:25.475Z,14.75
2023-02-28T20:21:53.553Z,13.98
2023-02-28T20:24:26.196Z,14.30
2023-02-28T20:26:54.268Z,14.57
2023-02-28T20:29:24.654Z,14.90
2023-02-28T20:31:53.537Z,14.90
2023-02-28T20:34:23.561Z,14.82
2023-02-28T20:36:51.933Z,15.63
2023-02-28T20:39:20.462Z,16.33
2023-02-28T20:41:48.566Z,17.13
2023-02-28T20:44:16.595Z,16.98
2023-02-28T20:46:45.630Z,16.73
2023-02-28T20:49:15.306Z,18.95
2023-02-28T20:51:45.332Z,19.77
2023-02-28T20:54:15.293Z,20.50
2023-02-28T20:56:45.652Z,20.70
2023-02-28T20:59:14.456Z,21.00
2023-02-28T21:01:45.703Z,22.73
2023-02-28T21:04:14.677Z,20.38
2023-02-28T21:06:47.983Z,23.45
2023-02-28T21:09:18.180Z,23.70
2023-02-28T21:11:46.372Z,24.20
2023-02-28T21:14:17.105Z,24.50
2023-02-28T21:16:48.572Z,23.20
2023-02-28T21:19:17.129Z,25.65
2023-02-28T21:21:45.334Z,25.60
2023-02-28T21:24:17.296Z,26.13
2023-02-28T21:26:46.104Z,26.75
2023-02-28T21:29:15.391Z,26.73
2023-02-28T21:31:46.575Z,26.38
2023-02-28T21:34:16.218Z,25.65
2023-02-28T21:36:45.886Z,23.95
2023-02-28T21:39:23.629Z,27.38
2023-02-28T21:41:53.094Z,27.33
2023-02-28T21:44:22.989Z,28.17
2023-02-28T21:46:57.773Z,27.98
2023-02-28T21:49:27.230Z,26.17
2023-02-28T21:51:58.216Z,28.10
2023-02-28T21:54:29.052Z,26.88
2023-02-28T21:56:58.275Z,28.20
2023-02-28T21:59:32.451Z,31.00
2023-02-28T22:02:01.057Z,35.80
2023-02-28T22:04:30.311Z,37.42
2023-02-28T22:06:58.653Z,38.08
2023-02-28T22:09:27.607Z,39.80
2023-02-28T22:11:56.781Z,40.67
2023-02-28T22:14:26.095Z,43.22
2023-02-28T22:17:01.323Z,45.90
2023-02-28T22:19:29.977Z,48.90
2023-02-28T22:21:59.002Z,47.13
2023-02-28T22:24:28.080Z,49.22
2023-02-28T22:26:57.370Z,47.55
2023-02-28T22:29:25.769Z,44.70
2023-02-28T22:31:56.979Z,42.35
2023-02-28T22:34:30.152Z,40.35
2023-02-28T22:36:59.320Z,38.28
2023-02-28T22:39:27.254Z,35.17
2023-02-28T22:41:57.034Z,35.78
2023-02-28T22:44:25.492Z,33.92
2023-02-28T22:46:54.539Z,32.28
2023-02-28T22:49:24.340Z,31.08
2023-02-28T22:51:53.146Z,29.83
2023-02-28T22:54:21.330Z,27.20
2023-02-28T22:56:50.756Z,26.77
2023-02-28T22:59:19.662Z,27.95
2023-02-28T23:01:48.350Z,27.33
2023-02-28T23:04:17.720Z,26.58
2023-02-28T23:06:47.954Z,26.80
2023-02-28T23:09:18.425Z,27.23
2023-02-28T23:11:50.552Z,24.02
2023-02-28T23:14:19.293Z,26.00
2023-02-28T23:16:54.360Z,27.00
2023-02-28T23:19:33.663Z,26.80
2023-02-28T23:22:03.008Z,25.67
2023-02-28T23:24:32.688Z,27.13
2023-02-28T23:27:02.276Z,26.42
2023-02-28T23:29:30.660Z,25.42
2023-02-28T23:31:59.021Z,25.08
2023-02-28T23:34:28.579Z,25.85
2023-02-28T23:36:59.781Z,26.75
2023-02-28T23:39:29.396Z,27.05
2023-02-28T23:41:57.941Z,27.70
2023-02-28T23:44:26.622Z,28.08
2023-02-28T23:46:55.869Z,25.92
2023-02-28T23:49:28.387Z,27.90
2023-02-28T23:51:57.786Z,28.13
2023-02-28T23:54:30.026Z,26.27
2023-02-28T23:56:59.711Z,28.10
2023-02-28T23:59:32.301Z,26.92
